sensor_id;sensor_type;location;lat;lon;timestamp;P1;durP1;ratioP1;P2;durP2;ratioP2
80711;SDS011;70078;51.596;5.678;2023-07-29T00:00:20;7.22;;;4.30;;
80711;SDS011;70078;51.596;5.678;2023-07-29T00:02:46;6.25;;;4.63;;
80711;SDS011;70078;51.596;5.678;2023-07-29T00:05:11;6.75;;;4.20;;
80711;SDS011;70078;51.596;5.678;2023-07-29T00:07:37;5.40;;;4.53;;
80711;SDS011;70078;51.596;5.678;2023-07-29T00:10:02;5.20;;;4.32;;
80711;SDS011;70078;51.596;5.678;2023-07-29T00:12:28;6.63;;;4.85;;
80711;SDS011;70078;51.596;5.678;2023-07-29T00:14:54;6.68;;;4.80;;
80711;SDS011;70078;51.596;5.678;2023-07-29T00:17:19;5.75;;;4.53;;
80711;SDS011;70078;51.596;5.678;2023-07-29T00:19:45;5.13;;;4.63;;
80711;SDS011;70078;51.596;5.678;2023-07-29T00:22:11;7.00;;;4.80;;
80711;SDS011;70078;51.596;5.678;2023-07-29T00:24:36;5.32;;;4.15;;
80711;SDS011;70078;51.596;5.678;2023-07-29T00:27:01;6.63;;;5.00;;
80711;SDS011;70078;51.596;5.678;2023-07-29T00:29:27;9.35;;;4.80;;
80711;SDS011;70078;51.596;5.678;2023-07-29T00:31:52;6.03;;;4.25;;
80711;SDS011;70078;51.596;5.678;2023-07-29T00:34:18;7.90;;;4.50;;
80711;SDS011;70078;51.596;5.678;2023-07-29T00:36:44;9.02;;;4.75;;
80711;SDS011;70078;51.596;5.678;2023-07-29T00:39:10;6.78;;;4.43;;
80711;SDS011;70078;51.596;5.678;2023-07-29T00:41:35;6.25;;;4.38;;
80711;SDS011;70078;51.596;5.678;2023-07-29T00:44:01;6.15;;;5.28;;
80711;SDS011;70078;51.596;5.678;2023-07-29T00:46:27;7.68;;;4.57;;
80711;SDS011;70078;51.596;5.678;2023-07-29T00:48:53;8.05;;;5.07;;
80711;SDS011;70078;51.596;5.678;2023-07-29T00:51:19;6.97;;;5.35;;
80711;SDS011;70078;51.596;5.678;2023-07-29T00:53:44;6.40;;;4.82;;
80711;SDS011;70078;51.596;5.678;2023-07-29T00:56:10;6.57;;;4.45;;
80711;SDS011;70078;51.596;5.678;2023-07-29T00:58:35;5.97;;;4.43;;
80711;SDS011;70078;51.596;5.678;2023-07-29T01:01:01;7.03;;;5.00;;
80711;SDS011;70078;51.596;5.678;2023-07-29T01:03:26;5.78;;;5.22;;
80711;SDS011;70078;51.596;5.678;2023-07-29T01:06:01;6.65;;;5.60;;
80711;SDS011;70078;51.596;5.678;2023-07-29T01:08:43;5.82;;;5.15;;
80711;SDS011;70078;51.596;5.678;2023-07-29T01:13:53;5.38;;;3.03;;
80711;SDS011;70078;51.596;5.678;2023-07-29T01:21:40;6.68;;;4.97;;
80711;SDS011;70078;51.596;5.678;2023-07-29T01:24:06;5.68;;;5.18;;
80711;SDS011;70078;51.596;5.678;2023-07-29T01:26:31;7.95;;;4.75;;
80711;SDS011;70078;51.596;5.678;2023-07-29T01:28:57;5.75;;;4.43;;
80711;SDS011;70078;51.596;5.678;2023-07-29T01:31:27;7.68;;;5.05;;
80711;SDS011;70078;51.596;5.678;2023-07-29T01:34:06;7.72;;;4.82;;
80711;SDS011;70078;51.596;5.678;2023-07-29T01:36:38;6.22;;;4.40;;
80711;SDS011;70078;51.596;5.678;2023-07-29T01:39:06;8.35;;;5.10;;
80711;SDS011;70078;51.596;5.678;2023-07-29T01:41:33;5.57;;;4.50;;
80711;SDS011;70078;51.596;5.678;2023-07-29T01:44:00;6.00;;;4.82;;
80711;SDS011;70078;51.596;5.678;2023-07-29T01:46:26;6.88;;;5.10;;
80711;SDS011;70078;51.596;5.678;2023-07-29T01:48:52;9.07;;;5.63;;
80711;SDS011;70078;51.596;5.678;2023-07-29T01:51:17;7.35;;;5.03;;
80711;SDS011;70078;51.596;5.678;2023-07-29T01:53:42;9.10;;;4.88;;
80711;SDS011;70078;51.596;5.678;2023-07-29T01:56:08;6.20;;;5.30;;
80711;SDS011;70078;51.596;5.678;2023-07-29T01:58:33;6.45;;;5.70;;
80711;SDS011;70078;51.596;5.678;2023-07-29T02:00:58;8.63;;;6.03;;
80711;SDS011;70078;51.596;5.678;2023-07-29T02:03:24;6.88;;;5.43;;
80711;SDS011;70078;51.596;5.678;2023-07-29T02:05:49;7.05;;;5.57;;
80711;SDS011;70078;51.596;5.678;2023-07-29T02:08:15;7.10;;;5.53;;
80711;SDS011;70078;51.596;5.678;2023-07-29T02:10:40;8.15;;;6.38;;
80711;SDS011;70078;51.596;5.678;2023-07-29T02:13:05;6.05;;;5.28;;
80711;SDS011;70078;51.596;5.678;2023-07-29T02:15:31;10.88;;;6.05;;
80711;SDS011;70078;51.596;5.678;2023-07-29T02:17:56;7.55;;;5.85;;
80711;SDS011;70078;51.596;5.678;2023-07-29T02:20:24;7.93;;;6.15;;
80711;SDS011;70078;51.596;5.678;2023-07-29T02:22:49;7.85;;;6.70;;
80711;SDS011;70078;51.596;5.678;2023-07-29T02:25:14;8.10;;;6.90;;
80711;SDS011;70078;51.596;5.678;2023-07-29T02:27:40;11.20;;;6.68;;
80711;SDS011;70078;51.596;5.678;2023-07-29T02:30:05;8.48;;;6.63;;
80711;SDS011;70078;51.596;5.678;2023-07-29T02:32:31;8.85;;;7.82;;
80711;SDS011;70078;51.596;5.678;2023-07-29T02:34:57;9.02;;;7.65;;
80711;SDS011;70078;51.596;5.678;2023-07-29T02:37:22;8.82;;;7.45;;
80711;SDS011;70078;51.596;5.678;2023-07-29T02:39:47;9.23;;;8.30;;
80711;SDS011;70078;51.596;5.678;2023-07-29T02:42:13;11.25;;;7.38;;
80711;SDS011;70078;51.596;5.678;2023-07-29T02:44:38;12.52;;;8.32;;
80711;SDS011;70078;51.596;5.678;2023-07-29T02:47:04;9.38;;;8.38;;
80711;SDS011;70078;51.596;5.678;2023-07-29T02:49:31;9.25;;;8.20;;
80711;SDS011;70078;51.596;5.678;2023-07-29T02:51:56;10.40;;;8.07;;
80711;SDS011;70078;51.596;5.678;2023-07-29T02:54:22;9.85;;;7.68;;
80711;SDS011;70078;51.596;5.678;2023-07-29T02:56:47;8.95;;;7.93;;
80711;SDS011;70078;51.596;5.678;2023-07-29T02:59:12;9.70;;;7.70;;
80711;SDS011;70078;51.596;5.678;2023-07-29T03:01:38;9.13;;;7.85;;
80711;SDS011;70078;51.596;5.678;2023-07-29T03:04:03;9.50;;;7.15;;
80711;SDS011;70078;51.596;5.678;2023-07-29T03:06:29;8.55;;;7.22;;
80711;SDS011;70078;51.596;5.678;2023-07-29T03:08:54;7.95;;;6.95;;
80711;SDS011;70078;51.596;5.678;2023-07-29T03:11:19;7.80;;;6.90;;
80711;SDS011;70078;51.596;5.678;2023-07-29T03:13:45;8.73;;;6.90;;
80711;SDS011;70078;51.596;5.678;2023-07-29T03:16:11;9.75;;;6.70;;
80711;SDS011;70078;51.596;5.678;2023-07-29T03:18:41;8.10;;;6.63;;
80711;SDS011;70078;51.596;5.678;2023-07-29T03:21:07;8.90;;;6.78;;
80711;SDS011;70078;51.596;5.678;2023-07-29T03:23:33;8.20;;;6.72;;
80711;SDS011;70078;51.596;5.678;2023-07-29T03:26:00;9.18;;;6.88;;
80711;SDS011;70078;51.596;5.678;2023-07-29T03:28:26;7.43;;;6.68;;
80711;SDS011;70078;51.596;5.678;2023-07-29T03:30:53;10.48;;;7.07;;
80711;SDS011;70078;51.596;5.678;2023-07-29T03:33:19;6.93;;;6.03;;
80711;SDS011;70078;51.596;5.678;2023-07-29T03:35:45;8.32;;;6.20;;
80711;SDS011;70078;51.596;5.678;2023-07-29T03:38:11;7.35;;;6.45;;
80711;SDS011;70078;51.596;5.678;2023-07-29T03:40:37;9.85;;;5.68;;
80711;SDS011;70078;51.596;5.678;2023-07-29T03:43:03;7.05;;;6.32;;
80711;SDS011;70078;51.596;5.678;2023-07-29T03:45:29;7.75;;;6.35;;
80711;SDS011;70078;51.596;5.678;2023-07-29T03:47:54;9.77;;;6.65;;
80711;SDS011;70078;51.596;5.678;2023-07-29T03:50:20;8.20;;;5.95;;
80711;SDS011;70078;51.596;5.678;2023-07-29T03:52:45;5.53;;;4.20;;
80711;SDS011;70078;51.596;5.678;2023-07-29T03:55:11;9.60;;;5.45;;
80711;SDS011;70078;51.596;5.678;2023-07-29T03:57:36;7.30;;;5.07;;
80711;SDS011;70078;51.596;5.678;2023-07-29T04:00:02;7.43;;;5.53;;
80711;SDS011;70078;51.596;5.678;2023-07-29T04:02:28;5.63;;;5.03;;
80711;SDS011;70078;51.596;5.678;2023-07-29T04:04:53;7.03;;;4.57;;
80711;SDS011;70078;51.596;5.678;2023-07-29T04:07:19;6.07;;;5.05;;
80711;SDS011;70078;51.596;5.678;2023-07-29T04:09:44;5.90;;;4.78;;
80711;SDS011;70078;51.596;5.678;2023-07-29T04:12:10;7.10;;;5.18;;
80711;SDS011;70078;51.596;5.678;2023-07-29T04:14:35;7.30;;;4.57;;
80711;SDS011;70078;51.596;5.678;2023-07-29T04:17:00;6.55;;;5.05;;
80711;SDS011;70078;51.596;5.678;2023-07-29T04:19:26;7.05;;;5.40;;
80711;SDS011;70078;51.596;5.678;2023-07-29T04:21:51;9.13;;;5.47;;
80711;SDS011;70078;51.596;5.678;2023-07-29T04:24:17;5.88;;;3.60;;
80711;SDS011;70078;51.596;5.678;2023-07-29T04:26:42;6.05;;;4.93;;
80711;SDS011;70078;51.596;5.678;2023-07-29T04:29:08;7.65;;;5.28;;
80711;SDS011;70078;51.596;5.678;2023-07-29T04:31:33;6.70;;;4.80;;
80711;SDS011;70078;51.596;5.678;2023-07-29T04:33:58;7.60;;;5.00;;
80711;SDS011;70078;51.596;5.678;2023-07-29T04:36:24;6.78;;;5.10;;
80711;SDS011;70078;51.596;5.678;2023-07-29T04:38:49;8.15;;;4.95;;
80711;SDS011;70078;51.596;5.678;2023-07-29T04:41:14;6.68;;;5.18;;
80711;SDS011;70078;51.596;5.678;2023-07-29T04:43:40;8.05;;;5.45;;
80711;SDS011;70078;51.596;5.678;2023-07-29T04:46:08;6.65;;;4.95;;
80711;SDS011;70078;51.596;5.678;2023-07-29T04:48:34;7.68;;;5.20;;
80711;SDS011;70078;51.596;5.678;2023-07-29T04:50:59;6.70;;;5.60;;
80711;SDS011;70078;51.596;5.678;2023-07-29T04:53:24;6.97;;;5.10;;
80711;SDS011;70078;51.596;5.678;2023-07-29T04:55:50;7.35;;;5.18;;
80711;SDS011;70078;51.596;5.678;2023-07-29T04:58:15;8.10;;;5.55;;
80711;SDS011;70078;51.596;5.678;2023-07-29T05:00:41;5.93;;;4.88;;
80711;SDS011;70078;51.596;5.678;2023-07-29T05:03:06;6.45;;;5.07;;
80711;SDS011;70078;51.596;5.678;2023-07-29T05:05:32;6.07;;;4.68;;
80711;SDS011;70078;51.596;5.678;2023-07-29T05:07:57;5.28;;;4.50;;
80711;SDS011;70078;51.596;5.678;2023-07-29T05:10:22;5.93;;;4.45;;
80711;SDS011;70078;51.596;5.678;2023-07-29T05:12:48;6.75;;;4.60;;
80711;SDS011;70078;51.596;5.678;2023-07-29T05:15:14;6.65;;;4.28;;
80711;SDS011;70078;51.596;5.678;2023-07-29T05:17:40;5.40;;;4.07;;
80711;SDS011;70078;51.596;5.678;2023-07-29T05:20:05;6.15;;;4.60;;
80711;SDS011;70078;51.596;5.678;2023-07-29T05:22:31;5.25;;;3.92;;
80711;SDS011;70078;51.596;5.678;2023-07-29T05:24:56;7.90;;;4.68;;
80711;SDS011;70078;51.596;5.678;2023-07-29T05:27:22;5.97;;;4.72;;
80711;SDS011;70078;51.596;5.678;2023-07-29T05:29:47;6.35;;;5.15;;
80711;SDS011;70078;51.596;5.678;2023-07-29T05:32:12;5.30;;;4.18;;
80711;SDS011;70078;51.596;5.678;2023-07-29T05:34:38;5.63;;;3.92;;
80711;SDS011;70078;51.596;5.678;2023-07-29T05:37:03;6.57;;;4.70;;
80711;SDS011;70078;51.596;5.678;2023-07-29T05:39:29;6.50;;;4.40;;
80711;SDS011;70078;51.596;5.678;2023-07-29T05:41:57;5.03;;;3.92;;
80711;SDS011;70078;51.596;5.678;2023-07-29T05:44:22;6.32;;;4.15;;
80711;SDS011;70078;51.596;5.678;2023-07-29T05:46:48;4.40;;;3.78;;
80711;SDS011;70078;51.596;5.678;2023-07-29T05:49:13;5.18;;;3.63;;
80711;SDS011;70078;51.596;5.678;2023-07-29T05:51:38;6.07;;;4.00;;
80711;SDS011;70078;51.596;5.678;2023-07-29T05:54:04;6.43;;;4.07;;
80711;SDS011;70078;51.596;5.678;2023-07-29T05:56:29;7.00;;;4.05;;
80711;SDS011;70078;51.596;5.678;2023-07-29T05:58:56;6.22;;;4.43;;
80711;SDS011;70078;51.596;5.678;2023-07-29T06:01:22;4.80;;;4.25;;
80711;SDS011;70078;51.596;5.678;2023-07-29T06:03:47;5.45;;;4.45;;
80711;SDS011;70078;51.596;5.678;2023-07-29T06:06:12;6.00;;;3.88;;
80711;SDS011;70078;51.596;5.678;2023-07-29T06:08:38;6.38;;;4.43;;
80711;SDS011;70078;51.596;5.678;2023-07-29T06:11:03;4.60;;;3.58;;
80711;SDS011;70078;51.596;5.678;2023-07-29T06:13:31;6.53;;;4.95;;
80711;SDS011;70078;51.596;5.678;2023-07-29T06:15:57;6.97;;;4.32;;
80711;SDS011;70078;51.596;5.678;2023-07-29T06:18:24;7.00;;;4.53;;
80711;SDS011;70078;51.596;5.678;2023-07-29T06:20:49;4.72;;;3.95;;
80711;SDS011;70078;51.596;5.678;2023-07-29T06:23:15;5.80;;;3.92;;
80711;SDS011;70078;51.596;5.678;2023-07-29T06:25:41;4.80;;;3.67;;
80711;SDS011;70078;51.596;5.678;2023-07-29T06:28:06;4.60;;;3.88;;
80711;SDS011;70078;51.596;5.678;2023-07-29T06:30:31;4.90;;;4.10;;
80711;SDS011;70078;51.596;5.678;2023-07-29T06:32:57;5.25;;;3.55;;
80711;SDS011;70078;51.596;5.678;2023-07-29T06:35:22;7.53;;;3.67;;
80711;SDS011;70078;51.596;5.678;2023-07-29T06:37:48;6.35;;;4.30;;
80711;SDS011;70078;51.596;5.678;2023-07-29T06:40:14;5.10;;;4.28;;
80711;SDS011;70078;51.596;5.678;2023-07-29T06:42:39;6.85;;;4.05;;
80711;SDS011;70078;51.596;5.678;2023-07-29T06:45:06;5.80;;;4.03;;
80711;SDS011;70078;51.596;5.678;2023-07-29T06:47:32;5.72;;;4.47;;
80711;SDS011;70078;51.596;5.678;2023-07-29T06:49:57;7.35;;;4.47;;
80711;SDS011;70078;51.596;5.678;2023-07-29T06:52:22;6.05;;;4.63;;
80711;SDS011;70078;51.596;5.678;2023-07-29T06:54:48;5.72;;;4.03;;
80711;SDS011;70078;51.596;5.678;2023-07-29T06:57:13;6.63;;;5.15;;
80711;SDS011;70078;51.596;5.678;2023-07-29T06:59:38;7.00;;;4.93;;
80711;SDS011;70078;51.596;5.678;2023-07-29T07:02:04;5.82;;;5.15;;
80711;SDS011;70078;51.596;5.678;2023-07-29T07:04:30;5.50;;;4.53;;
80711;SDS011;70078;51.596;5.678;2023-07-29T07:06:55;7.75;;;5.40;;
80711;SDS011;70078;51.596;5.678;2023-07-29T07:09:21;7.05;;;5.18;;
80711;SDS011;70078;51.596;5.678;2023-07-29T07:11:46;6.63;;;4.82;;
80711;SDS011;70078;51.596;5.678;2023-07-29T07:14:11;5.28;;;3.38;;
80711;SDS011;70078;51.596;5.678;2023-07-29T07:16:37;5.75;;;4.97;;
80711;SDS011;70078;51.596;5.678;2023-07-29T07:19:04;5.72;;;4.22;;
80711;SDS011;70078;51.596;5.678;2023-07-29T07:21:30;4.55;;;4.15;;
80711;SDS011;70078;51.596;5.678;2023-07-29T07:23:57;5.75;;;4.45;;
80711;SDS011;70078;51.596;5.678;2023-07-29T07:26:22;5.78;;;4.35;;
80711;SDS011;70078;51.596;5.678;2023-07-29T07:28:48;6.18;;;4.32;;
80711;SDS011;70078;51.596;5.678;2023-07-29T07:31:13;5.78;;;4.47;;
80711;SDS011;70078;51.596;5.678;2023-07-29T07:33:39;5.43;;;4.20;;
80711;SDS011;70078;51.596;5.678;2023-07-29T07:36:04;5.15;;;3.67;;
80711;SDS011;70078;51.596;5.678;2023-07-29T07:38:29;4.85;;;3.63;;
80711;SDS011;70078;51.596;5.678;2023-07-29T07:40:55;7.07;;;3.88;;
80711;SDS011;70078;51.596;5.678;2023-07-29T07:43:21;4.15;;;3.45;;
80711;SDS011;70078;51.596;5.678;2023-07-29T07:45:47;4.68;;;4.28;;
80711;SDS011;70078;51.596;5.678;2023-07-29T07:48:13;4.00;;;3.45;;
80711;SDS011;70078;51.596;5.678;2023-07-29T07:50:39;5.75;;;4.05;;
80711;SDS011;70078;51.596;5.678;2023-07-29T07:53:04;3.90;;;3.40;;
80711;SDS011;70078;51.596;5.678;2023-07-29T07:55:30;4.45;;;3.10;;
80711;SDS011;70078;51.596;5.678;2023-07-29T07:57:55;6.95;;;3.22;;
80711;SDS011;70078;51.596;5.678;2023-07-29T08:00:21;4.85;;;3.05;;
80711;SDS011;70078;51.596;5.678;2023-07-29T08:02:46;3.65;;;3.13;;
80711;SDS011;70078;51.596;5.678;2023-07-29T08:05:12;3.97;;;3.58;;
80711;SDS011;70078;51.596;5.678;2023-07-29T08:07:37;3.50;;;3.20;;
80711;SDS011;70078;51.596;5.678;2023-07-29T08:10:20;4.00;;;3.40;;
80711;SDS011;70078;51.596;5.678;2023-07-29T08:13:04;4.88;;;3.35;;
80711;SDS011;70078;51.596;5.678;2023-07-29T08:15:29;6.47;;;3.50;;
80711;SDS011;70078;51.596;5.678;2023-07-29T08:20:58;5.65;;;3.30;;
80711;SDS011;70078;51.596;5.678;2023-07-29T08:23:34;4.60;;;3.35;;
80711;SDS011;70078;51.596;5.678;2023-07-29T08:26:04;4.70;;;3.67;;
80711;SDS011;70078;51.596;5.678;2023-07-29T08:31:02;4.93;;;3.90;;
80711;SDS011;70078;51.596;5.678;2023-07-29T08:33:28;5.88;;;3.78;;
80711;SDS011;70078;51.596;5.678;2023-07-29T08:38:42;5.38;;;3.35;;
80711;SDS011;70078;51.596;5.678;2023-07-29T08:41:14;3.30;;;2.63;;
80711;SDS011;70078;51.596;5.678;2023-07-29T08:47:11;4.15;;;3.40;;
80711;SDS011;70078;51.596;5.678;2023-07-29T08:49:38;3.80;;;3.40;;
80711;SDS011;70078;51.596;5.678;2023-07-29T08:52:07;3.30;;;2.85;;
80711;SDS011;70078;51.596;5.678;2023-07-29T08:54:33;3.95;;;3.65;;
80711;SDS011;70078;51.596;5.678;2023-07-29T08:57:06;3.22;;;2.67;;
80711;SDS011;70078;51.596;5.678;2023-07-29T08:59:32;6.20;;;3.35;;
80711;SDS011;70078;51.596;5.678;2023-07-29T09:02:03;4.55;;;2.85;;
80711;SDS011;70078;51.596;5.678;2023-07-29T09:04:37;4.55;;;3.15;;
80711;SDS011;70078;51.596;5.678;2023-07-29T09:07:03;4.22;;;3.05;;
80711;SDS011;70078;51.596;5.678;2023-07-29T09:09:31;3.72;;;2.65;;
80711;SDS011;70078;51.596;5.678;2023-07-29T09:11:57;2.80;;;2.60;;
80711;SDS011;70078;51.596;5.678;2023-07-29T09:16:58;7.00;;;3.10;;
80711;SDS011;70078;51.596;5.678;2023-07-29T09:19:32;3.40;;;3.05;;
80711;SDS011;70078;51.596;5.678;2023-07-29T09:21:58;2.92;;;2.60;;
80711;SDS011;70078;51.596;5.678;2023-07-29T09:24:23;4.13;;;3.10;;
80711;SDS011;70078;51.596;5.678;2023-07-29T09:27:06;3.42;;;2.47;;
80711;SDS011;70078;51.596;5.678;2023-07-29T09:29:35;3.15;;;2.03;;
80711;SDS011;70078;51.596;5.678;2023-07-29T09:32:22;3.08;;;2.40;;
80711;SDS011;70078;51.596;5.678;2023-07-29T09:34:49;5.32;;;2.78;;
80711;SDS011;70078;51.596;5.678;2023-07-29T09:37:20;3.65;;;2.35;;
80711;SDS011;70078;51.596;5.678;2023-07-29T09:39:46;6.25;;;3.20;;
80711;SDS011;70078;51.596;5.678;2023-07-29T09:42:19;3.22;;;2.50;;
80711;SDS011;70078;51.596;5.678;2023-07-29T09:44:46;4.57;;;2.53;;
80711;SDS011;70078;51.596;5.678;2023-07-29T09:47:23;3.88;;;2.70;;
80711;SDS011;70078;51.596;5.678;2023-07-29T09:49:50;3.20;;;2.50;;
80711;SDS011;70078;51.596;5.678;2023-07-29T09:52:19;4.25;;;2.22;;
80711;SDS011;70078;51.596;5.678;2023-07-29T09:54:46;3.33;;;1.33;;
80711;SDS011;70078;51.596;5.678;2023-07-29T09:57:16;3.90;;;2.70;;
80711;SDS011;70078;51.596;5.678;2023-07-29T09:59:43;4.55;;;2.67;;
80711;SDS011;70078;51.596;5.678;2023-07-29T10:02:18;3.75;;;2.58;;
80711;SDS011;70078;51.596;5.678;2023-07-29T10:04:45;3.58;;;2.75;;
80711;SDS011;70078;51.596;5.678;2023-07-29T10:07:11;3.63;;;3.10;;
80711;SDS011;70078;51.596;5.678;2023-07-29T10:09:40;4.30;;;2.92;;
80711;SDS011;70078;51.596;5.678;2023-07-29T10:12:05;4.05;;;2.95;;
80711;SDS011;70078;51.596;5.678;2023-07-29T10:14:32;3.10;;;2.80;;
80711;SDS011;70078;51.596;5.678;2023-07-29T10:16:58;3.03;;;2.58;;
80711;SDS011;70078;51.596;5.678;2023-07-29T10:19:25;3.65;;;3.15;;
80711;SDS011;70078;51.596;5.678;2023-07-29T10:21:51;3.47;;;2.92;;
80711;SDS011;70078;51.596;5.678;2023-07-29T10:24:54;5.47;;;3.05;;
80711;SDS011;70078;51.596;5.678;2023-07-29T10:27:21;4.20;;;2.55;;
80711;SDS011;70078;51.596;5.678;2023-07-29T10:29:50;5.00;;;3.03;;
80711;SDS011;70078;51.596;5.678;2023-07-29T10:32:15;6.05;;;2.75;;
80711;SDS011;70078;51.596;5.678;2023-07-29T10:34:41;3.13;;;2.83;;
80711;SDS011;70078;51.596;5.678;2023-07-29T10:37:07;3.00;;;2.70;;
80711;SDS011;70078;51.596;5.678;2023-07-29T10:39:39;4.55;;;3.15;;
80711;SDS011;70078;51.596;5.678;2023-07-29T10:42:16;3.47;;;2.70;;
80711;SDS011;70078;51.596;5.678;2023-07-29T10:47:14;3.10;;;2.80;;
80711;SDS011;70078;51.596;5.678;2023-07-29T10:49:40;3.25;;;2.70;;
80711;SDS011;70078;51.596;5.678;2023-07-29T10:52:06;3.47;;;3.08;;
80711;SDS011;70078;51.596;5.678;2023-07-29T10:54:41;3.58;;;2.50;;
80711;SDS011;70078;51.596;5.678;2023-07-29T10:57:08;3.05;;;2.60;;
80711;SDS011;70078;51.596;5.678;2023-07-29T10:59:39;4.47;;;2.92;;
80711;SDS011;70078;51.596;5.678;2023-07-29T11:02:11;4.45;;;3.25;;
80711;SDS011;70078;51.596;5.678;2023-07-29T11:04:46;3.65;;;1.70;;
80711;SDS011;70078;51.596;5.678;2023-07-29T11:20:14;3.90;;;2.70;;
80711;SDS011;70078;51.596;5.678;2023-07-29T11:22:41;3.22;;;2.92;;
80711;SDS011;70078;51.596;5.678;2023-07-29T11:25:08;3.30;;;2.72;;
80711;SDS011;70078;51.596;5.678;2023-07-29T11:27:35;3.47;;;2.65;;
80711;SDS011;70078;51.596;5.678;2023-07-29T11:30:02;3.28;;;2.97;;
80711;SDS011;70078;51.596;5.678;2023-07-29T11:32:30;2.72;;;2.42;;
80711;SDS011;70078;51.596;5.678;2023-07-29T11:34:55;4.05;;;3.03;;
80711;SDS011;70078;51.596;5.678;2023-07-29T11:37:21;4.28;;;3.10;;
80711;SDS011;70078;51.596;5.678;2023-07-29T11:39:47;4.20;;;2.72;;
80711;SDS011;70078;51.596;5.678;2023-07-29T11:42:13;6.03;;;2.70;;
80711;SDS011;70078;51.596;5.678;2023-07-29T11:44:39;4.28;;;2.95;;
80711;SDS011;70078;51.596;5.678;2023-07-29T11:47:06;5.97;;;3.50;;
80711;SDS011;70078;51.596;5.678;2023-07-29T11:49:33;3.95;;;3.22;;
80711;SDS011;70078;51.596;5.678;2023-07-29T11:51:58;4.45;;;3.10;;
80711;SDS011;70078;51.596;5.678;2023-07-29T11:54:24;6.65;;;3.10;;
80711;SDS011;70078;51.596;5.678;2023-07-29T11:56:51;3.63;;;3.28;;
80711;SDS011;70078;51.596;5.678;2023-07-29T11:59:17;3.22;;;2.75;;
80711;SDS011;70078;51.596;5.678;2023-07-29T12:01:42;3.65;;;2.92;;
80711;SDS011;70078;51.596;5.678;2023-07-29T12:04:08;3.22;;;2.92;;
80711;SDS011;70078;51.596;5.678;2023-07-29T12:06:34;3.17;;;2.70;;
80711;SDS011;70078;51.596;5.678;2023-07-29T12:09:00;3.35;;;2.85;;
80711;SDS011;70078;51.596;5.678;2023-07-29T12:11:25;3.50;;;2.72;;
80711;SDS011;70078;51.596;5.678;2023-07-29T12:13:53;2.67;;;2.47;;
80711;SDS011;70078;51.596;5.678;2023-07-29T12:16:19;3.13;;;2.70;;
80711;SDS011;70078;51.596;5.678;2023-07-29T12:18:44;3.40;;;3.00;;
80711;SDS011;70078;51.596;5.678;2023-07-29T12:21:10;3.60;;;2.63;;
80711;SDS011;70078;51.596;5.678;2023-07-29T12:23:35;3.88;;;3.30;;
80711;SDS011;70078;51.596;5.678;2023-07-29T12:26:01;3.08;;;2.78;;
80711;SDS011;70078;51.596;5.678;2023-07-29T12:28:27;3.25;;;2.95;;
80711;SDS011;70078;51.596;5.678;2023-07-29T12:30:53;4.22;;;3.05;;
80711;SDS011;70078;51.596;5.678;2023-07-29T12:33:32;3.33;;;2.92;;
80711;SDS011;70078;51.596;5.678;2023-07-29T12:35:59;6.65;;;4.07;;
80711;SDS011;70078;51.596;5.678;2023-07-29T12:38:27;6.63;;;3.10;;
80711;SDS011;70078;51.596;5.678;2023-07-29T12:40:54;4.25;;;2.28;;
80711;SDS011;70078;51.596;5.678;2023-07-29T12:43:19;4.97;;;2.42;;
80711;SDS011;70078;51.596;5.678;2023-07-29T12:45:45;4.03;;;2.35;;
80711;SDS011;70078;51.596;5.678;2023-07-29T12:48:11;2.72;;;1.92;;
80711;SDS011;70078;51.596;5.678;2023-07-29T12:50:37;2.60;;;1.95;;
80711;SDS011;70078;51.596;5.678;2023-07-29T12:53:04;3.22;;;2.88;;
80711;SDS011;70078;51.596;5.678;2023-07-29T12:55:30;3.35;;;2.58;;
80711;SDS011;70078;51.596;5.678;2023-07-29T12:57:55;2.97;;;2.63;;
80711;SDS011;70078;51.596;5.678;2023-07-29T13:00:21;3.40;;;3.10;;
80711;SDS011;70078;51.596;5.678;2023-07-29T13:02:46;3.60;;;3.13;;
80711;SDS011;70078;51.596;5.678;2023-07-29T13:05:12;5.25;;;3.55;;
80711;SDS011;70078;51.596;5.678;2023-07-29T13:07:38;4.43;;;3.75;;
80711;SDS011;70078;51.596;5.678;2023-07-29T13:10:04;5.28;;;4.82;;
80711;SDS011;70078;51.596;5.678;2023-07-29T13:12:30;4.68;;;4.18;;
80711;SDS011;70078;51.596;5.678;2023-07-29T13:14:56;5.05;;;3.88;;
80711;SDS011;70078;51.596;5.678;2023-07-29T13:17:21;4.63;;;4.22;;
80711;SDS011;70078;51.596;5.678;2023-07-29T13:19:47;4.25;;;3.85;;
80711;SDS011;70078;51.596;5.678;2023-07-29T13:22:13;3.63;;;2.92;;
80711;SDS011;70078;51.596;5.678;2023-07-29T13:24:38;4.28;;;3.40;;
80711;SDS011;70078;51.596;5.678;2023-07-29T13:27:03;3.05;;;2.45;;
80711;SDS011;70078;51.596;5.678;2023-07-29T13:29:29;3.97;;;2.45;;
80711;SDS011;70078;51.596;5.678;2023-07-29T13:31:55;3.67;;;2.60;;
80711;SDS011;70078;51.596;5.678;2023-07-29T13:34:20;3.25;;;2.60;;
80711;SDS011;70078;51.596;5.678;2023-07-29T13:36:45;3.53;;;2.67;;
80711;SDS011;70078;51.596;5.678;2023-07-29T13:39:11;4.35;;;3.03;;
80711;SDS011;70078;51.596;5.678;2023-07-29T13:41:36;2.85;;;2.55;;
80711;SDS011;70078;51.596;5.678;2023-07-29T13:44:01;3.55;;;2.80;;
80711;SDS011;70078;51.596;5.678;2023-07-29T13:46:27;3.58;;;2.75;;
80711;SDS011;70078;51.596;5.678;2023-07-29T13:48:52;3.50;;;2.88;;
80711;SDS011;70078;51.596;5.678;2023-07-29T13:51:17;3.35;;;2.42;;
80711;SDS011;70078;51.596;5.678;2023-07-29T13:53:43;3.38;;;3.08;;
80711;SDS011;70078;51.596;5.678;2023-07-29T13:56:08;7.25;;;2.42;;
80711;SDS011;70078;51.596;5.678;2023-07-29T13:58:33;4.13;;;2.30;;
80711;SDS011;70078;51.596;5.678;2023-07-29T14:00:59;3.28;;;2.97;;
80711;SDS011;70078;51.596;5.678;2023-07-29T14:03:24;3.22;;;2.83;;
80711;SDS011;70078;51.596;5.678;2023-07-29T14:05:49;3.47;;;2.97;;
80711;SDS011;70078;51.596;5.678;2023-07-29T14:08:15;3.72;;;3.05;;
80711;SDS011;70078;51.596;5.678;2023-07-29T14:10:40;3.08;;;2.78;;
80711;SDS011;70078;51.596;5.678;2023-07-29T14:13:06;3.78;;;2.75;;
80711;SDS011;70078;51.596;5.678;2023-07-29T14:15:31;3.38;;;2.83;;
80711;SDS011;70078;51.596;5.678;2023-07-29T14:17:57;3.38;;;3.03;;
80711;SDS011;70078;51.596;5.678;2023-07-29T14:20:23;3.45;;;2.80;;
80711;SDS011;70078;51.596;5.678;2023-07-29T14:22:48;3.95;;;3.65;;
80711;SDS011;70078;51.596;5.678;2023-07-29T14:25:15;3.22;;;2.92;;
80711;SDS011;70078;51.596;5.678;2023-07-29T14:27:40;2.85;;;2.65;;
80711;SDS011;70078;51.596;5.678;2023-07-29T14:30:06;3.80;;;3.38;;
80711;SDS011;70078;51.596;5.678;2023-07-29T14:32:32;3.50;;;2.75;;
80711;SDS011;70078;51.596;5.678;2023-07-29T14:34:58;3.85;;;3.55;;
80711;SDS011;70078;51.596;5.678;2023-07-29T14:37:25;3.47;;;3.17;;
80711;SDS011;70078;51.596;5.678;2023-07-29T14:39:50;3.20;;;2.78;;
80711;SDS011;70078;51.596;5.678;2023-07-29T14:42:16;2.92;;;2.63;;
80711;SDS011;70078;51.596;5.678;2023-07-29T14:44:41;6.30;;;3.05;;
80711;SDS011;70078;51.596;5.678;2023-07-29T14:47:08;3.97;;;3.67;;
80711;SDS011;70078;51.596;5.678;2023-07-29T14:49:33;3.20;;;2.90;;
80711;SDS011;70078;51.596;5.678;2023-07-29T14:51:58;3.33;;;3.03;;
80711;SDS011;70078;51.596;5.678;2023-07-29T14:54:24;3.22;;;2.90;;
80711;SDS011;70078;51.596;5.678;2023-07-29T14:56:49;3.58;;;3.28;;
80711;SDS011;70078;51.596;5.678;2023-07-29T14:59:15;3.40;;;3.10;;
80711;SDS011;70078;51.596;5.678;2023-07-29T15:01:40;3.40;;;3.10;;
80711;SDS011;70078;51.596;5.678;2023-07-29T15:04:06;4.15;;;3.78;;
80711;SDS011;70078;51.596;5.678;2023-07-29T15:06:31;3.08;;;2.33;;
80711;SDS011;70078;51.596;5.678;2023-07-29T15:08:57;4.05;;;3.65;;
80711;SDS011;70078;51.596;5.678;2023-07-29T15:11:24;3.90;;;3.60;;
80711;SDS011;70078;51.596;5.678;2023-07-29T15:13:50;3.47;;;3.13;;
80711;SDS011;70078;51.596;5.678;2023-07-29T15:16:15;3.50;;;3.20;;
80711;SDS011;70078;51.596;5.678;2023-07-29T15:18:41;3.70;;;3.40;;
80711;SDS011;70078;51.596;5.678;2023-07-29T15:21:06;4.15;;;3.75;;